BCS7MA EDDB-EETN
Flight info
| Callsign | BCS7MA |
|---|---|
| Flight time | 1h 21m |
| Altitude | 39000 |
| Route | GERGA4B/06L GERGA M725 RENKI L132 DEMUR N746 GORPI DCT ANFEV DCT DIPEB DCT ETHUV DCT ADBIB DCT SULUN |
| Aircraft | A333/H-SDE3GHIJ2J3J5M1RVWXY/LB2D1 |
Departure
| Time | 2026-05-07 18:34 |
|---|---|
| Airport | Berlin Brandenburg Airport (EDDB) |
Arrival
| Time | 2026-05-07 19:56 |
|---|---|
| Airport | Lennart Meri Tallinn Airport (EETN) |
| Time | Latitude | Longitude | Altitude | Speed | Heading |
|---|---|---|---|---|---|
| 2026-05-07 17:41 | 52.38741 | 13.52323 | 158 ft | 0 kts | 338° |
| 2026-05-07 18:19 | 52.38742 | 13.52323 | 158 ft | 1 kts | 338° |
| 2026-05-07 18:19 | 52.38750 | 13.52319 | 158 ft | 2 kts | 345° |
| 2026-05-07 18:19 | 52.38766 | 13.52309 | 158 ft | 3 kts | 333° |
| 2026-05-07 18:19 | 52.38779 | 13.52284 | 158 ft | 3 kts | 300° |
| 2026-05-07 18:20 | 52.38780 | 13.52248 | 158 ft | 4 kts | 266° |
| 2026-05-07 18:20 | 52.38771 | 13.52208 | 158 ft | 4 kts | 248° |
| 2026-05-07 18:20 | 52.38757 | 13.52155 | 158 ft | 6 kts | 247° |
| 2026-05-07 18:20 | 52.38740 | 13.52089 | 158 ft | 7 kts | 247° |
| 2026-05-07 18:21 | 52.38716 | 13.52015 | 158 ft | 7 kts | 226° |
| 2026-05-07 18:21 | 52.38670 | 13.52011 | 158 ft | 7 kts | 165° |
| 2026-05-07 18:21 | 52.38619 | 13.52038 | 158 ft | 8 kts | 160° |
| 2026-05-07 18:21 | 52.38563 | 13.52074 | 158 ft | 9 kts | 158° |
| 2026-05-07 18:22 | 52.38506 | 13.52110 | 158 ft | 9 kts | 159° |
| 2026-05-07 18:22 | 52.38468 | 13.52135 | 158 ft | 9 kts | 159° |
| 2026-05-07 18:22 | 52.38407 | 13.52174 | 158 ft | 6 kts | 158° |
| 2026-05-07 18:22 | 52.38370 | 13.52186 | 158 ft | 5 kts | 185° |
| 2026-05-07 18:23 | 52.38343 | 13.52149 | 158 ft | 5 kts | 237° |
| 2026-05-07 18:23 | 52.38326 | 13.52086 | 158 ft | 7 kts | 248° |
| 2026-05-07 18:23 | 52.38308 | 13.52009 | 158 ft | 8 kts | 249° |
| 2026-05-07 18:23 | 52.38286 | 13.51919 | 158 ft | 9 kts | 249° |
| 2026-05-07 18:24 | 52.38263 | 13.51819 | 161 ft | 10 kts | 249° |
| 2026-05-07 18:24 | 52.38240 | 13.51725 | 158 ft | 8 kts | 249° |
| 2026-05-07 18:24 | 52.38219 | 13.51635 | 158 ft | 9 kts | 249° |
| 2026-05-07 18:24 | 52.38194 | 13.51536 | 158 ft | 10 kts | 243° |
| 2026-05-07 18:25 | 52.38141 | 13.51460 | 158 ft | 11 kts | 216° |
| 2026-05-07 18:25 | 52.38094 | 13.51364 | 158 ft | 11 kts | 236° |
| 2026-05-07 18:25 | 52.38048 | 13.51249 | 158 ft | 12 kts | 237° |
| 2026-05-07 18:25 | 52.38001 | 13.51127 | 158 ft | 13 kts | 237° |
| 2026-05-07 18:26 | 52.37949 | 13.50993 | 158 ft | 14 kts | 237° |
| 2026-05-07 18:26 | 52.37895 | 13.50853 | 158 ft | 15 kts | 237° |
| 2026-05-07 18:26 | 52.37839 | 13.50708 | 158 ft | 16 kts | 237° |
| 2026-05-07 18:26 | 52.37778 | 13.50555 | 158 ft | 16 kts | 237° |
| 2026-05-07 18:27 | 52.37716 | 13.50396 | 158 ft | 17 kts | 237° |
| 2026-05-07 18:27 | 52.37651 | 13.50231 | 158 ft | 17 kts | 237° |
| 2026-05-07 18:27 | 52.37584 | 13.50062 | 158 ft | 18 kts | 237° |
| 2026-05-07 18:27 | 52.37516 | 13.49887 | 158 ft | 18 kts | 237° |
| 2026-05-07 18:28 | 52.37446 | 13.49707 | 158 ft | 19 kts | 237° |
| 2026-05-07 18:28 | 52.37375 | 13.49523 | 158 ft | 19 kts | 237° |
| 2026-05-07 18:28 | 52.37302 | 13.49335 | 158 ft | 20 kts | 237° |
| 2026-05-07 18:28 | 52.37243 | 13.49185 | 158 ft | 15 kts | 237° |
| 2026-05-07 18:29 | 52.37192 | 13.49055 | 158 ft | 13 kts | 237° |
| 2026-05-07 18:29 | 52.37142 | 13.48928 | 158 ft | 14 kts | 237° |
| 2026-05-07 18:29 | 52.37097 | 13.48813 | 158 ft | 11 kts | 237° |
| 2026-05-07 18:29 | 52.37061 | 13.48722 | 158 ft | 10 kts | 237° |
| 2026-05-07 18:30 | 52.37017 | 13.48638 | 158 ft | 6 kts | 217° |
| 2026-05-07 18:30 | 52.36983 | 13.48611 | 158 ft | 1 kts | 201° |
| 2026-05-07 18:32 | 52.36982 | 13.48611 | 158 ft | 0 kts | 201° |
| 2026-05-07 18:32 | 52.36973 | 13.48605 | 158 ft | 3 kts | 201° |
| 2026-05-07 18:32 | 52.36942 | 13.48586 | 158 ft | 7 kts | 201° |
| 2026-05-07 18:32 | 52.36889 | 13.48553 | 158 ft | 10 kts | 200° |
| 2026-05-07 18:33 | 52.36816 | 13.48532 | 158 ft | 11 kts | 169° |
| 2026-05-07 18:33 | 52.36797 | 13.48616 | 158 ft | 8 kts | 72° |
| 2026-05-07 18:33 | 52.36820 | 13.48710 | 158 ft | 10 kts | 68° |
| 2026-05-07 18:33 | 52.36873 | 13.48937 | 158 ft | 43 kts | 69° |
| 2026-05-07 18:34 | 52.37059 | 13.49720 | 158 ft | 103 kts | 69° |
| 2026-05-07 18:34 | 52.37384 | 13.51091 | 160 ft | 155 kts | 69° |
| 2026-05-07 18:34 | 52.37824 | 13.52874 | 516 ft | 175 kts | 68° |
| 2026-05-07 18:34 | 52.38268 | 13.54681 | 1443 ft | 166 kts | 67° |
| 2026-05-07 18:35 | 52.38679 | 13.56376 | 2256 ft | 162 kts | 67° |
| 2026-05-07 18:35 | 52.39124 | 13.58215 | 2600 ft | 184 kts | 67° |
| 2026-05-07 18:35 | 52.39616 | 13.60254 | 3038 ft | 201 kts | 68° |
| 2026-05-07 18:35 | 52.40148 | 13.62475 | 3510 ft | 216 kts | 68° |
| 2026-05-07 18:36 | 52.40704 | 13.64881 | 3848 ft | 236 kts | 69° |
| 2026-05-07 18:36 | 52.41293 | 13.67477 | 4335 ft | 249 kts | 69° |
| 2026-05-07 18:36 | 52.41909 | 13.70164 | 5054 ft | 255 kts | 68° |
| 2026-05-07 18:36 | 52.42573 | 13.72878 | 5811 ft | 259 kts | 63° |
| 2026-05-07 18:37 | 52.43592 | 13.75313 | 6576 ft | 262 kts | 46° |
| 2026-05-07 18:37 | 52.45020 | 13.77196 | 7317 ft | 266 kts | 34° |
| 2026-05-07 18:37 | 52.46637 | 13.78760 | 8052 ft | 272 kts | 27° |
| 2026-05-07 18:37 | 52.48351 | 13.80120 | 8799 ft | 276 kts | 24° |
| 2026-05-07 18:38 | 52.50118 | 13.81391 | 9594 ft | 279 kts | 23° |
| 2026-05-07 18:38 | 52.51920 | 13.82653 | 10315 ft | 284 kts | 23° |
| 2026-05-07 18:38 | 52.53791 | 13.83978 | 10649 ft | 303 kts | 23° |
| 2026-05-07 18:38 | 52.55752 | 13.85401 | 10924 ft | 321 kts | 24° |
| 2026-05-07 18:39 | 52.57840 | 13.86953 | 11304 ft | 335 kts | 24° |
| 2026-05-07 18:39 | 52.59984 | 13.88573 | 11888 ft | 342 kts | 24° |
| 2026-05-07 18:39 | 52.62162 | 13.90233 | 12554 ft | 347 kts | 24° |
| 2026-05-07 18:39 | 52.64392 | 13.91940 | 13281 ft | 351 kts | 24° |
| 2026-05-07 18:40 | 52.66588 | 13.93624 | 13952 ft | 355 kts | 24° |
| 2026-05-07 18:40 | 52.68837 | 13.95349 | 14562 ft | 358 kts | 24° |
| 2026-05-07 18:40 | 52.71107 | 13.97090 | 15172 ft | 362 kts | 24° |
| 2026-05-07 18:40 | 52.73403 | 13.98851 | 15782 ft | 366 kts | 24° |
| 2026-05-07 18:41 | 52.75728 | 14.00635 | 16394 ft | 369 kts | 24° |
| 2026-05-07 18:41 | 52.78069 | 14.02434 | 16983 ft | 373 kts | 24° |
| 2026-05-07 18:41 | 52.80435 | 14.04254 | 17596 ft | 377 kts | 24° |
| 2026-05-07 18:41 | 52.82825 | 14.06094 | 18184 ft | 381 kts | 24° |
| 2026-05-07 18:42 | 52.85234 | 14.07951 | 18716 ft | 384 kts | 24° |
| 2026-05-07 18:42 | 52.87663 | 14.09826 | 19245 ft | 387 kts | 24° |
| 2026-05-07 18:42 | 52.90108 | 14.11716 | 19767 ft | 389 kts | 24° |
| 2026-05-07 18:42 | 52.92563 | 14.13617 | 20333 ft | 390 kts | 24° |
| 2026-05-07 18:43 | 52.95031 | 14.15530 | 20871 ft | 392 kts | 24° |
| 2026-05-07 18:43 | 52.97512 | 14.17455 | 21352 ft | 395 kts | 24° |
| 2026-05-07 18:43 | 53.00009 | 14.19394 | 21858 ft | 397 kts | 24° |
| 2026-05-07 18:43 | 53.02519 | 14.21347 | 22350 ft | 400 kts | 24° |
| 2026-05-07 18:44 | 53.05056 | 14.23300 | 22825 ft | 403 kts | 23° |
| 2026-05-07 18:44 | 53.07620 | 14.25189 | 23328 ft | 404 kts | 22° |
| 2026-05-07 18:44 | 53.10176 | 14.27030 | 23746 ft | 408 kts | 22° |
| 2026-05-07 18:44 | 53.12790 | 14.28902 | 24136 ft | 410 kts | 22° |
| 2026-05-07 18:45 | 53.15415 | 14.30787 | 24569 ft | 411 kts | 23° |
| 2026-05-07 18:45 | 53.18043 | 14.32686 | 24967 ft | 412 kts | 23° |
| 2026-05-07 18:45 | 53.20676 | 14.34600 | 25389 ft | 414 kts | 23° |
| 2026-05-07 18:45 | 53.23321 | 14.36532 | 25727 ft | 417 kts | 23° |
| 2026-05-07 18:46 | 53.25983 | 14.38482 | 26139 ft | 418 kts | 24° |
| 2026-05-07 18:46 | 53.28650 | 14.40442 | 26479 ft | 421 kts | 24° |
| 2026-05-07 18:46 | 53.31340 | 14.42420 | 26841 ft | 423 kts | 24° |
| 2026-05-07 18:46 | 53.34035 | 14.44406 | 27245 ft | 424 kts | 24° |
| 2026-05-07 18:47 | 53.36749 | 14.46408 | 27553 ft | 428 kts | 24° |
| 2026-05-07 18:47 | 53.39473 | 14.48419 | 27967 ft | 428 kts | 24° |
| 2026-05-07 18:47 | 53.42210 | 14.50442 | 28290 ft | 431 kts | 24° |
| 2026-05-07 18:47 | 53.44963 | 14.52481 | 28658 ft | 433 kts | 24° |
| 2026-05-07 18:48 | 53.47728 | 14.54530 | 28979 ft | 436 kts | 24° |
| 2026-05-07 18:48 | 53.50510 | 14.56596 | 29288 ft | 438 kts | 24° |
| 2026-05-07 18:48 | 53.53303 | 14.58673 | 29670 ft | 440 kts | 24° |
| 2026-05-07 18:48 | 53.56113 | 14.60765 | 29969 ft | 443 kts | 24° |
| 2026-05-07 18:49 | 53.58931 | 14.62866 | 30324 ft | 444 kts | 24° |
| 2026-05-07 18:49 | 53.61765 | 14.64983 | 30510 ft | 448 kts | 24° |
| 2026-05-07 18:49 | 53.64638 | 14.67131 | 30689 ft | 453 kts | 24° |
| 2026-05-07 18:49 | 53.67528 | 14.69296 | 30936 ft | 456 kts | 24° |
| 2026-05-07 18:50 | 53.70438 | 14.71479 | 31149 ft | 459 kts | 24° |
| 2026-05-07 18:50 | 53.73366 | 14.73678 | 31404 ft | 462 kts | 24° |
| 2026-05-07 18:50 | 53.76312 | 14.75895 | 31620 ft | 465 kts | 24° |
| 2026-05-07 18:50 | 53.79282 | 14.78133 | 31783 ft | 470 kts | 24° |
| 2026-05-07 18:51 | 53.82267 | 14.80386 | 32114 ft | 470 kts | 24° |
| 2026-05-07 18:51 | 53.85225 | 14.82621 | 32354 ft | 473 kts | 24° |
| 2026-05-07 18:51 | 53.88227 | 14.84895 | 32678 ft | 473 kts | 24° |
| 2026-05-07 18:51 | 53.91233 | 14.87174 | 33010 ft | 473 kts | 24° |
| 2026-05-07 18:52 | 53.94234 | 14.89454 | 33342 ft | 473 kts | 24° |
| 2026-05-07 18:52 | 53.97241 | 14.91741 | 33651 ft | 474 kts | 24° |
| 2026-05-07 18:52 | 54.00252 | 14.94036 | 33934 ft | 475 kts | 24° |
| 2026-05-07 18:52 | 54.03268 | 14.96338 | 34185 ft | 476 kts | 24° |
| 2026-05-07 18:53 | 54.06292 | 14.98649 | 34425 ft | 476 kts | 24° |
| 2026-05-07 18:53 | 54.09315 | 15.00964 | 34663 ft | 477 kts | 24° |
| 2026-05-07 18:53 | 54.12338 | 15.03282 | 34898 ft | 477 kts | 24° |
| 2026-05-07 18:53 | 54.15368 | 15.05609 | 35144 ft | 477 kts | 24° |
| 2026-05-07 18:54 | 54.18389 | 15.07934 | 35384 ft | 477 kts | 24° |
| 2026-05-07 18:54 | 54.21416 | 15.10266 | 35633 ft | 477 kts | 24° |
| 2026-05-07 18:54 | 54.24441 | 15.12601 | 35859 ft | 477 kts | 24° |
| 2026-05-07 18:54 | 54.27470 | 15.14943 | 36078 ft | 478 kts | 24° |
| 2026-05-07 18:55 | 54.30496 | 15.17286 | 36306 ft | 478 kts | 24° |
| 2026-05-07 18:55 | 54.33525 | 15.19635 | 36510 ft | 478 kts | 24° |
| 2026-05-07 18:55 | 54.36555 | 15.21989 | 36738 ft | 478 kts | 24° |
| 2026-05-07 18:55 | 54.39582 | 15.24345 | 36950 ft | 478 kts | 24° |
| 2026-05-07 18:56 | 54.42614 | 15.26708 | 37163 ft | 478 kts | 24° |
| 2026-05-07 18:56 | 54.45642 | 15.29072 | 37386 ft | 479 kts | 24° |
| 2026-05-07 18:56 | 54.48677 | 15.31444 | 37575 ft | 479 kts | 24° |
| 2026-05-07 18:56 | 54.51707 | 15.33818 | 37781 ft | 479 kts | 24° |
| 2026-05-07 18:57 | 54.54738 | 15.36195 | 37975 ft | 479 kts | 24° |
| 2026-05-07 18:57 | 54.57771 | 15.38579 | 38185 ft | 479 kts | 24° |
| 2026-05-07 18:57 | 54.60802 | 15.40965 | 38367 ft | 479 kts | 24° |
| 2026-05-07 18:57 | 54.63834 | 15.43355 | 38562 ft | 479 kts | 24° |
| 2026-05-07 18:58 | 54.65842 | 15.44940 | 38682 ft | 479 kts | 24° |
| 2026-05-07 18:58 | 54.68874 | 15.47338 | 38852 ft | 479 kts | 24° |
| 2026-05-07 18:58 | 54.71910 | 15.49741 | 38936 ft | 480 kts | 24° |
| 2026-05-07 18:59 | 54.77988 | 15.54566 | 39100 ft | 480 kts | 24° |
| 2026-05-07 18:59 | 54.84071 | 15.59411 | 39146 ft | 482 kts | 24° |
| 2026-05-07 19:00 | 54.90099 | 15.64542 | 39147 ft | 483 kts | 31° |
| 2026-05-07 19:00 | 54.95292 | 15.71921 | 39152 ft | 484 kts | 43° |
| 2026-05-07 19:01 | 55.00062 | 15.80189 | 39151 ft | 484 kts | 45° |
| 2026-05-07 19:01 | 55.04745 | 15.88645 | 39149 ft | 484 kts | 46° |
| 2026-05-07 19:02 | 55.09390 | 15.97052 | 39152 ft | 484 kts | 46° |
| 2026-05-07 19:02 | 55.14080 | 16.05513 | 39146 ft | 484 kts | 45° |
| 2026-05-07 19:03 | 55.18770 | 16.13978 | 39146 ft | 484 kts | 46° |
| 2026-05-07 19:03 | 55.23453 | 16.22455 | 39151 ft | 484 kts | 46° |
| 2026-05-07 19:04 | 55.28131 | 16.30957 | 39149 ft | 485 kts | 46° |
| 2026-05-07 19:04 | 55.32811 | 16.39496 | 39146 ft | 485 kts | 46° |
| 2026-05-07 19:05 | 55.37481 | 16.48049 | 39149 ft | 485 kts | 46° |
| 2026-05-07 19:05 | 55.42148 | 16.56626 | 39151 ft | 485 kts | 46° |
| 2026-05-07 19:06 | 55.46805 | 16.65216 | 39152 ft | 485 kts | 46° |
| 2026-05-07 19:06 | 55.53788 | 16.78156 | 39155 ft | 485 kts | 46° |
| 2026-05-07 19:07 | 55.58437 | 16.86811 | 39151 ft | 485 kts | 46° |
| 2026-05-07 19:07 | 55.63080 | 16.95486 | 39151 ft | 485 kts | 46° |
| 2026-05-07 19:08 | 55.67715 | 17.04178 | 39148 ft | 486 kts | 46° |
| 2026-05-07 19:08 | 55.72353 | 17.12909 | 39149 ft | 487 kts | 46° |
| 2026-05-07 19:09 | 55.76964 | 17.21620 | 39151 ft | 487 kts | 46° |
| 2026-05-07 19:09 | 55.81653 | 17.30323 | 39151 ft | 487 kts | 45° |
| 2026-05-07 19:10 | 55.86403 | 17.38930 | 39151 ft | 487 kts | 45° |
| 2026-05-07 19:10 | 55.91152 | 17.47548 | 39149 ft | 487 kts | 45° |
| 2026-05-07 19:11 | 55.95889 | 17.56204 | 39146 ft | 488 kts | 45° |
| 2026-05-07 19:11 | 56.00620 | 17.64900 | 39151 ft | 488 kts | 45° |
| 2026-05-07 19:12 | 56.05341 | 17.73614 | 39153 ft | 488 kts | 45° |
| 2026-05-07 19:12 | 56.10058 | 17.82352 | 39137 ft | 488 kts | 45° |
| 2026-05-07 19:13 | 56.14768 | 17.91109 | 39140 ft | 488 kts | 45° |
| 2026-05-07 19:13 | 56.19458 | 17.99931 | 39147 ft | 489 kts | 46° |
| 2026-05-07 19:14 | 56.23999 | 18.08921 | 39149 ft | 490 kts | 47° |
| 2026-05-07 19:14 | 56.28537 | 18.18070 | 39146 ft | 490 kts | 47° |
| 2026-05-07 19:15 | 56.33077 | 18.27229 | 39151 ft | 490 kts | 47° |
| 2026-05-07 19:15 | 56.37627 | 18.36409 | 39154 ft | 491 kts | 47° |
| 2026-05-07 19:16 | 56.42175 | 18.45606 | 39139 ft | 491 kts | 47° |
| 2026-05-07 19:16 | 56.46712 | 18.54818 | 39154 ft | 491 kts | 47° |
| 2026-05-07 19:17 | 56.51244 | 18.64055 | 39134 ft | 491 kts | 47° |
| 2026-05-07 19:17 | 56.55769 | 18.73316 | 39153 ft | 491 kts | 47° |
| 2026-05-07 19:18 | 56.60296 | 18.82616 | 39147 ft | 492 kts | 47° |
| 2026-05-07 19:18 | 56.64815 | 18.91939 | 39131 ft | 492 kts | 47° |
| 2026-05-07 19:19 | 56.69334 | 19.01296 | 39151 ft | 492 kts | 48° |
| 2026-05-07 19:19 | 56.73817 | 19.10617 | 39155 ft | 493 kts | 47° |
| 2026-05-07 19:20 | 56.78328 | 19.20033 | 39151 ft | 494 kts | 47° |
| 2026-05-07 19:20 | 56.82836 | 19.29479 | 39146 ft | 494 kts | 48° |
| 2026-05-07 19:21 | 56.87340 | 19.38957 | 39148 ft | 494 kts | 48° |
| 2026-05-07 19:21 | 56.91837 | 19.48456 | 39149 ft | 494 kts | 48° |
| 2026-05-07 19:22 | 56.96327 | 19.57979 | 39161 ft | 494 kts | 48° |
| 2026-05-07 19:22 | 57.00814 | 19.67535 | 39151 ft | 495 kts | 48° |
| 2026-05-07 19:23 | 57.05301 | 19.77128 | 39149 ft | 495 kts | 48° |
| 2026-05-07 19:23 | 57.09776 | 19.86735 | 39150 ft | 495 kts | 48° |
| 2026-05-07 19:24 | 57.14247 | 19.96372 | 39153 ft | 496 kts | 48° |
| 2026-05-07 19:24 | 57.18717 | 20.06047 | 39149 ft | 496 kts | 48° |
| 2026-05-07 19:25 | 57.23184 | 20.15754 | 39143 ft | 496 kts | 48° |
| 2026-05-07 19:25 | 57.27643 | 20.25484 | 39144 ft | 496 kts | 49° |
| 2026-05-07 19:26 | 57.32093 | 20.35235 | 39156 ft | 496 kts | 49° |
| 2026-05-07 19:26 | 57.36536 | 20.45012 | 39166 ft | 496 kts | 49° |
| 2026-05-07 19:27 | 57.40977 | 20.54821 | 39145 ft | 497 kts | 49° |
| 2026-05-07 19:27 | 57.45416 | 20.64670 | 39147 ft | 498 kts | 49° |
| 2026-05-07 19:28 | 57.49850 | 20.74548 | 39149 ft | 497 kts | 49° |
| 2026-05-07 19:28 | 57.54275 | 20.84446 | 39152 ft | 497 kts | 49° |
| 2026-05-07 19:29 | 57.58663 | 20.94304 | 39155 ft | 498 kts | 49° |
| 2026-05-07 19:29 | 57.63084 | 21.04277 | 39148 ft | 500 kts | 49° |
| 2026-05-07 19:30 | 57.67542 | 21.14374 | 39146 ft | 500 kts | 49° |
| 2026-05-07 19:30 | 57.71935 | 21.24370 | 39144 ft | 501 kts | 49° |
| 2026-05-07 19:31 | 57.76346 | 21.34447 | 39139 ft | 501 kts | 49° |
| 2026-05-07 19:31 | 57.80752 | 21.44558 | 39147 ft | 501 kts | 49° |
| 2026-05-07 19:32 | 57.85161 | 21.54716 | 39143 ft | 502 kts | 49° |
| 2026-05-07 19:32 | 57.89557 | 21.64931 | 39142 ft | 503 kts | 52° |
| 2026-05-07 19:33 | 57.93579 | 21.75694 | 39135 ft | 503 kts | 53° |
| 2026-05-07 19:33 | 57.97795 | 21.86190 | 39135 ft | 502 kts | 49° |
| 2026-05-07 19:34 | 58.02304 | 21.96247 | 39128 ft | 502 kts | 47° |
| 2026-05-07 19:34 | 58.04614 | 22.01210 | 38894 ft | 505 kts | 46° |
| 2026-05-07 19:34 | 58.06949 | 22.06196 | 38073 ft | 510 kts | 46° |
| 2026-05-07 19:35 | 58.09312 | 22.11244 | 37240 ft | 514 kts | 46° |
| 2026-05-07 19:35 | 58.11497 | 22.16603 | 36565 ft | 517 kts | 59° |
| 2026-05-07 19:35 | 58.13084 | 22.22717 | 35935 ft | 518 kts | 63° |
| 2026-05-07 19:35 | 58.15005 | 22.28454 | 35297 ft | 515 kts | 47° |
| 2026-05-07 19:36 | 58.17582 | 22.33093 | 34684 ft | 510 kts | 35° |
| 2026-05-07 19:36 | 58.20330 | 22.37353 | 34091 ft | 511 kts | 38° |
| 2026-05-07 19:36 | 58.22986 | 22.41837 | 33361 ft | 511 kts | 40° |
| 2026-05-07 19:36 | 58.25526 | 22.46564 | 32664 ft | 512 kts | 43° |
| 2026-05-07 19:37 | 58.28002 | 22.51423 | 31975 ft | 511 kts | 44° |
| 2026-05-07 19:37 | 58.30459 | 22.56300 | 31310 ft | 510 kts | 44° |
| 2026-05-07 19:37 | 58.32904 | 22.61178 | 30659 ft | 509 kts | 44° |
| 2026-05-07 19:37 | 58.35334 | 22.66044 | 29998 ft | 507 kts | 44° |
| 2026-05-07 19:38 | 58.37755 | 22.70911 | 29243 ft | 505 kts | 44° |
| 2026-05-07 19:38 | 58.40138 | 22.75710 | 28527 ft | 503 kts | 44° |
| 2026-05-07 19:38 | 58.42536 | 22.80551 | 27862 ft | 501 kts | 44° |
| 2026-05-07 19:38 | 58.44915 | 22.85398 | 27154 ft | 499 kts | 44° |
| 2026-05-07 19:39 | 58.47273 | 22.90240 | 26491 ft | 497 kts | 44° |
| 2026-05-07 19:39 | 58.49617 | 22.95071 | 25831 ft | 494 kts | 44° |
| 2026-05-07 19:39 | 58.51945 | 22.99881 | 25195 ft | 491 kts | 44° |
| 2026-05-07 19:39 | 58.53509 | 23.03117 | 24769 ft | 489 kts | 44° |
| 2026-05-07 19:40 | 58.56555 | 23.09436 | 23942 ft | 485 kts | 44° |
| 2026-05-07 19:40 | 58.58831 | 23.14174 | 23251 ft | 482 kts | 44° |
| 2026-05-07 19:40 | 58.61091 | 23.18873 | 22511 ft | 473 kts | 44° |
| 2026-05-07 19:40 | 58.63286 | 23.23435 | 21822 ft | 457 kts | 44° |
| 2026-05-07 19:41 | 58.65398 | 23.27853 | 21163 ft | 442 kts | 44° |
| 2026-05-07 19:41 | 58.67437 | 23.32164 | 20499 ft | 430 kts | 44° |
| 2026-05-07 19:41 | 58.69417 | 23.36373 | 19859 ft | 421 kts | 44° |
| 2026-05-07 19:41 | 58.71366 | 23.40529 | 19211 ft | 417 kts | 44° |
| 2026-05-07 19:42 | 58.73312 | 23.44688 | 18596 ft | 418 kts | 44° |
| 2026-05-07 19:42 | 58.75273 | 23.48836 | 17908 ft | 418 kts | 42° |
| 2026-05-07 19:42 | 58.77352 | 23.52721 | 17203 ft | 416 kts | 39° |
| 2026-05-07 19:42 | 58.79448 | 23.56520 | 16509 ft | 410 kts | 39° |
| 2026-05-07 19:43 | 58.81503 | 23.60234 | 15842 ft | 400 kts | 39° |
| 2026-05-07 19:43 | 58.83483 | 23.63811 | 15191 ft | 390 kts | 39° |
| 2026-05-07 19:43 | 58.85471 | 23.67396 | 14540 ft | 382 kts | 39° |
| 2026-05-07 19:43 | 58.87366 | 23.70819 | 13925 ft | 374 kts | 39° |
| 2026-05-07 19:44 | 58.89243 | 23.74224 | 13212 ft | 367 kts | 39° |
| 2026-05-07 19:44 | 58.91094 | 23.77572 | 12527 ft | 361 kts | 39° |
| 2026-05-07 19:44 | 58.92914 | 23.80849 | 11845 ft | 355 kts | 39° |
| 2026-05-07 19:44 | 58.94712 | 23.84066 | 11197 ft | 347 kts | 39° |
| 2026-05-07 19:45 | 58.96458 | 23.87177 | 10599 ft | 335 kts | 39° |
| 2026-05-07 19:45 | 58.98139 | 23.90163 | 10215 ft | 318 kts | 39° |
| 2026-05-07 19:45 | 58.99714 | 23.92966 | 10106 ft | 297 kts | 39° |
| 2026-05-07 19:45 | 59.01193 | 23.95611 | 10102 ft | 283 kts | 39° |
| 2026-05-07 19:46 | 59.02627 | 23.98186 | 9968 ft | 280 kts | 39° |
| 2026-05-07 19:46 | 59.04051 | 24.00743 | 9695 ft | 278 kts | 39° |
| 2026-05-07 19:46 | 59.05470 | 24.03278 | 9413 ft | 276 kts | 39° |
| 2026-05-07 19:46 | 59.06406 | 24.04943 | 9237 ft | 274 kts | 39° |
| 2026-05-07 19:47 | 59.07811 | 24.07430 | 8971 ft | 272 kts | 39° |
| 2026-05-07 19:47 | 59.09207 | 24.09885 | 8711 ft | 269 kts | 39° |
| 2026-05-07 19:47 | 59.10596 | 24.12318 | 8446 ft | 268 kts | 39° |
| 2026-05-07 19:47 | 59.11978 | 24.14727 | 8193 ft | 266 kts | 39° |
| 2026-05-07 19:48 | 59.13354 | 24.17115 | 7921 ft | 264 kts | 39° |
| 2026-05-07 19:48 | 59.14723 | 24.19477 | 7651 ft | 261 kts | 39° |
| 2026-05-07 19:48 | 59.16081 | 24.21809 | 7388 ft | 259 kts | 39° |
| 2026-05-07 19:48 | 59.17431 | 24.24114 | 7161 ft | 257 kts | 39° |
| 2026-05-07 19:49 | 59.18771 | 24.26389 | 6902 ft | 254 kts | 39° |
| 2026-05-07 19:49 | 59.20104 | 24.28641 | 6640 ft | 252 kts | 39° |
| 2026-05-07 19:49 | 59.21430 | 24.30868 | 6384 ft | 250 kts | 39° |
| 2026-05-07 19:49 | 59.22747 | 24.33074 | 6121 ft | 249 kts | 39° |
| 2026-05-07 19:50 | 59.24074 | 24.35222 | 5813 ft | 246 kts | 34° |
| 2026-05-07 19:50 | 59.25551 | 24.36877 | 5488 ft | 244 kts | 26° |
| 2026-05-07 19:50 | 59.27072 | 24.38318 | 5183 ft | 242 kts | 25° |
| 2026-05-07 19:50 | 59.28588 | 24.39739 | 4870 ft | 241 kts | 25° |
| 2026-05-07 19:51 | 59.30094 | 24.41159 | 4553 ft | 240 kts | 25° |
| 2026-05-07 19:51 | 59.31591 | 24.42582 | 4233 ft | 239 kts | 25° |
| 2026-05-07 19:51 | 59.33079 | 24.44007 | 3924 ft | 238 kts | 25° |
| 2026-05-07 19:51 | 59.34559 | 24.45438 | 3617 ft | 237 kts | 25° |
| 2026-05-07 19:52 | 59.36030 | 24.46872 | 3297 ft | 236 kts | 25° |
| 2026-05-07 19:52 | 59.37494 | 24.48312 | 2987 ft | 235 kts | 25° |
| 2026-05-07 19:52 | 59.38949 | 24.49750 | 2676 ft | 234 kts | 25° |
| 2026-05-07 19:52 | 59.40333 | 24.51388 | 2378 ft | 234 kts | 43° |
| 2026-05-07 19:53 | 59.41109 | 24.54135 | 2210 ft | 227 kts | 68° |
| 2026-05-07 19:53 | 59.41419 | 24.57072 | 2181 ft | 214 kts | 84° |
| 2026-05-07 19:53 | 59.41386 | 24.59906 | 2161 ft | 201 kts | 90° |
| 2026-05-07 19:53 | 59.41363 | 24.62555 | 2060 ft | 190 kts | 86° |
| 2026-05-07 19:54 | 59.41370 | 24.65114 | 1779 ft | 184 kts | 87° |
| 2026-05-07 19:54 | 59.41364 | 24.67571 | 1515 ft | 176 kts | 87° |
| 2026-05-07 19:54 | 59.41350 | 24.69866 | 1285 ft | 164 kts | 87° |
| 2026-05-07 19:54 | 59.41327 | 24.72026 | 1018 ft | 153 kts | 88° |
| 2026-05-07 19:55 | 59.41329 | 24.74051 | 805 ft | 145 kts | 86° |
| 2026-05-07 19:55 | 59.41337 | 24.76020 | 642 ft | 144 kts | 87° |
| 2026-05-07 19:55 | 59.41336 | 24.77994 | 490 ft | 145 kts | 89° |
| 2026-05-07 19:55 | 59.41327 | 24.79973 | 312 ft | 145 kts | 89° |
| 2026-05-07 19:56 | 59.41328 | 24.81950 | 173 ft | 142 kts | 90° |
| 2026-05-07 19:56 | 59.41326 | 24.83611 | 167 ft | 95 kts | 90° |
| 2026-05-07 19:56 | 59.41320 | 24.84520 | 163 ft | 41 kts | 89° |
| 2026-05-07 19:56 | 59.41320 | 24.84814 | 166 ft | 11 kts | 90° |
| 2026-05-07 19:57 | 59.41314 | 24.84954 | 166 ft | 8 kts | 111° |
| 2026-05-07 19:57 | 59.41272 | 24.85008 | 166 ft | 7 kts | 173° |
| 2026-05-07 19:57 | 59.41216 | 24.85009 | 166 ft | 9 kts | 179° |
| 2026-05-07 19:57 | 59.41170 | 24.85028 | 166 ft | 7 kts | 149° |
| 2026-05-07 19:58 | 59.41151 | 24.85115 | 166 ft | 8 kts | 95° |
| 2026-05-07 19:58 | 59.41150 | 24.85229 | 166 ft | 9 kts | 91° |
| 2026-05-07 19:58 | 59.41148 | 24.85363 | 166 ft | 10 kts | 91° |
| 2026-05-07 19:58 | 59.41148 | 24.85450 | 166 ft | 6 kts | 90° |
| 2026-05-07 19:59 | 59.41145 | 24.85491 | 166 ft | 2 kts | 110° |
| 2026-05-07 19:59 | 59.41133 | 24.85504 | 166 ft | 2 kts | 152° |
| 2026-05-07 19:59 | 59.41112 | 24.85516 | 166 ft | 4 kts | 171° |
| 2026-05-07 19:59 | 59.41087 | 24.85519 | 166 ft | 4 kts | 178° |
| 2026-05-07 20:00 | 59.41070 | 24.85518 | 166 ft | 3 kts | 181° |
| 2026-05-07 20:00 | 59.41054 | 24.85518 | 166 ft | 1 kts | 179° |
| 2026-05-07 20:00 | 59.41044 | 24.85518 | 166 ft | 1 kts | 180° |